Time;durP1;ratioP1;P1;durP2;ratioP2;P2;SDS_P1;SDS_P2;PMS_P1;PMS_P2;Temp;Humidity;BMP_temperature;BMP_pressure;BME280_temperature;BME280_humidity;BME280_pressure;Samples;Min_cycle;Max_cycle;Signal;HPM_P1;HPM_P2
2021/11/19 02:51:24;;;;;;;14.80;7.00;;;5.70;99.90;;;;;;5045003;23;20461;-82
2021/11/19 02:55:04;;;;;;;15.90;6.63;;;5.70;99.90;;;;;;5008318;28;20049;-82
2021/11/19 02:58:15;;;;;;;;;;;5.80;99.90;;;;;;5011366;28;20065;-82
2021/11/19 03:01:40;;;;;;;11.48;5.70;;;5.80;99.90;;;;;;5038723;28;19897;-82
2021/11/19 03:05:10;;;;;;;13.25;7.05;;;5.70;99.90;;;;;;5040719;28;20028;-81
2021/11/19 03:08:06;;;;;;;11.57;5.70;;;5.70;99.90;;;;;;4936867;28;20058;-82
2021/11/19 03:11:45;;;;;;;11.95;6.65;;;5.60;99.90;;;;;;4921842;29;20036;-81
2021/11/19 03:14:54;;;;;;;13.95;7.18;;;5.80;99.90;;;;;;4923757;29;20044;-82
2021/11/19 03:18:26;;;;;;;15.95;7.15;;;5.90;99.90;;;;;;4883221;29;20013;-82
2021/11/19 03:22:08;;;;;;;10.68;6.22;;;6.00;99.90;;;;;;4913503;29;20028;-82
2021/11/19 03:25:52;;;;;;;11.90;6.60;;;6.10;99.90;;;;;;4849457;29;20027;-81
2021/11/19 03:29:13;;;;;;;16.70;7.18;;;6.20;99.90;;;;;;4824148;29;20027;-82
2021/11/19 03:32:26;;;;;;;12.65;6.70;;;6.20;99.90;;;;;;4849277;29;20018;-82
2021/11/19 04:17:19;;;;;;;15.57;8.27;;;6.30;99.90;;;;;;5235911;22;20040;-81
2021/11/19 04:19:50;;;;;;;16.63;8.18;;;6.20;99.90;;;;;;4984295;28;20018;-82
2021/11/19 04:39:13;;;;;;;13.75;8.32;;;6.40;99.90;;;;;;4941540;28;20068;-81
2021/11/19 04:42:51;;;;;;;14.80;8.23;;;6.60;99.90;;;;;;4912857;29;20040;-82
2021/11/19 04:56:46;;;;;;;15.38;7.97;;;7.10;99.90;;;;;;6075163;23;20020;-81
2021/11/19 05:00:06;;;;;;;13.68;8.43;;;7.10;99.90;;;;;;5014698;28;20090;-82
2021/11/19 05:06:42;;;;;;;12.57;8.10;;;7.10;99.90;;;;;;4946299;28;20075;-81
2021/11/19 05:10:09;;;;;;;13.85;8.23;;;7.00;99.90;;;;;;4907959;29;20044;-81
2021/11/19 05:13:29;;;;;;;13.52;8.18;;;7.00;99.90;;;;;;4874288;29;20025;-83
2021/11/19 05:16:59;;;;;;;20.27;10.38;;;7.00;99.90;;;;;;4869048;29;20048;-82
2021/11/19 05:20:28;;;;;;;14.45;9.20;;;7.00;99.90;;;;;;4884679;29;20058;-82
2021/11/19 06:27:43;;;;;;;15.45;11.02;;;7.30;99.90;;;;;;5017167;28;20056;-81
2021/11/19 06:33:53;;;;;;;16.08;10.25;;;7.40;99.90;;;;;;5017266;28;20065;-80
2021/11/19 06:44:58;;;;;;;14.00;9.68;;;7.80;99.90;;;;;;5841397;23;20090;-80
2021/11/19 06:48:08;;;;;;;16.60;9.80;;;7.90;99.90;;;;;;5007926;28;20105;-82
2021/11/19 06:50:57;;;;;;;19.55;9.57;;;7.90;99.90;;;;;;4999055;28;20031;-81
2021/11/19 06:53:58;;;;;;;14.50;9.68;;;7.80;99.90;;;;;;4982481;28;20099;-81
2021/11/19 06:58:49;;;;;;;13.83;9.53;;;7.90;99.90;;;;;;5106875;27;20386;-81
2021/11/19 07:01:18;;;;;;;11.90;8.32;;;8.00;99.90;;;;;;5096801;28;20037;-81
2021/11/19 07:03:46;;;;;;;17.00;9.93;;;8.00;99.90;;;;;;5094216;28;20040;-79
2021/11/19 07:06:13;;;;;;;14.65;9.10;;;8.00;99.90;;;;;;5070810;28;20027;-79
2021/11/19 07:08:39;;;;;;;13.73;8.88;;;8.10;99.90;;;;;;5077650;28;20040;-78
2021/11/19 07:11:07;;;;;;;;;;;8.20;99.90;;;;;;5077340;28;20028;-80
2021/11/19 07:13:33;;;;;;;14.82;8.93;;;8.20;99.90;;;;;;5077677;28;19927;-79
2021/11/19 07:15:59;;;;;;;14.40;8.43;;;8.20;99.90;;;;;;5076691;28;20033;-79
2021/11/19 07:18:24;;;;;;;;;;;8.20;99.90;;;;;;5078290;28;20068;-79
2021/11/19 07:20:51;;;;;;;12.23;8.48;;;8.30;99.90;;;;;;5076020;28;19956;-80
2021/11/19 07:23:17;;;;;;;14.30;8.85;;;8.30;99.90;;;;;;5075809;28;20571;-78
2021/11/19 07:25:44;;;;;;;12.73;8.30;;;8.40;99.90;;;;;;5077222;28;20392;-79
2021/11/19 07:28:11;;;;;;;11.95;8.10;;;8.30;99.90;;;;;;5078074;28;20024;-79
2021/11/19 07:30:40;;;;;;;10.98;8.07;;;8.30;99.90;;;;;;5082491;28;20092;-79
2021/11/19 07:33:07;;;;;;;14.52;8.10;;;8.40;99.90;;;;;;5083844;28;20074;-79
2021/11/19 07:35:34;;;;;;;14.70;8.88;;;8.40;99.90;;;;;;5080768;28;20021;-80
2021/11/19 07:38:00;;;;;;;11.80;8.13;;;8.40;99.90;;;;;;5078270;28;20033;-78
2021/11/19 07:40:27;;;;;;;;;;;8.50;99.90;;;;;;5076559;28;20108;-79
2021/11/19 07:42:53;;;;;;;14.60;7.80;;;8.50;99.90;;;;;;5077495;28;19904;-78
2021/11/19 07:45:19;;;;;;;10.98;8.02;;;8.60;99.90;;;;;;5077577;28;20386;-78
2021/11/19 07:47:45;;;;;;;;;;;8.60;99.90;;;;;;5079624;28;20421;-79
2021/11/19 07:50:13;;;;;;;11.10;7.60;;;8.70;99.90;;;;;;5080241;28;20372;-78
2021/11/19 07:52:39;;;;;;;13.18;7.88;;;8.70;99.90;;;;;;5078563;28;20040;-79
2021/11/19 07:55:06;;;;;;;;;;;8.70;99.90;;;;;;5077939;28;20037;-79
2021/11/19 07:57:32;;;;;;;14.55;7.55;;;8.90;99.90;;;;;;5085137;28;19932;-79
2021/11/19 08:00:00;;;;;;;;;;;9.00;99.90;;;;;;5092599;28;20039;-78
2021/11/19 08:02:26;;;;;;;8.80;6.15;;;9.10;99.90;;;;;;5092540;28;19896;-80
2021/11/19 08:05:35;;;;;;;;;;;9.10;99.90;;;;;;5092822;28;20029;-79
2021/11/19 08:08:59;;;;;;;9.63;6.82;;;9.20;99.90;;;;;;5029420;28;19900;-80
2021/11/19 09:08:46;;;;;;;9.73;6.90;;;8.70;99.90;;;;;;5921035;23;20050;-79
2021/11/19 09:14:21;;;;;;;14.05;6.35;;;8.80;99.90;;;;;;4995741;28;20045;-79
2021/11/19 09:17:16;;;;;;;12.98;7.13;;;8.90;99.90;;;;;;4978465;28;20050;-79
2021/11/19 09:20:40;;;;;;;10.52;7.22;;;9.00;99.90;;;;;;4995026;28;20061;-79
2021/11/19 09:23:39;;;;;;;11.77;5.88;;;9.00;99.90;;;;;;4994674;28;20070;-79
2021/11/19 09:26:15;;;;;;;10.85;6.10;;;9.10;99.90;;;;;;4978582;28;20038;-80
2021/11/19 09:28:46;;;;;;;8.93;6.13;;;9.10;99.90;;;;;;4978096;28;20038;-80
2021/11/19 12:08:57;;;;;;;11.75;7.20;;;11.90;99.90;;;;;;4943730;29;20027;-80
2021/11/19 12:19:33;;;;;;;6.07;3.63;;;11.80;99.90;;;;;;4924442;29;20067;-80
2021/11/19 12:22:59;;;;;;;4.30;2.05;;;11.90;99.90;;;;;;4905686;29;20025;-80
2021/11/19 12:48:12;;;;;;;4.45;3.00;;;11.70;99.90;;;;;;4954682;28;20070;-79
2021/11/19 12:55:10;;;;;;;3.90;2.30;;;11.50;99.90;;;;;;4915512;29;20067;-80
2021/11/19 12:58:38;;;;;;;4.82;2.80;;;11.50;99.90;;;;;;4922786;29;20024;-81
2021/11/19 13:01:56;;;;;;;4.07;2.22;;;11.40;99.90;;;;;;4890969;29;20096;-81
2021/11/19 13:05:23;;;;;;;8.23;2.15;;;11.40;99.90;;;;;;4848644;29;20034;-81
2021/11/19 13:08:42;;;;;;;3.50;1.77;;;11.40;99.90;;;;;;4818307;29;20070;-81
2021/11/19 13:12:20;;;;;;;6.32;2.05;;;11.40;99.90;;;;;;4848473;29;20042;-80
2021/11/19 13:19:37;;;;;;;7.20;2.75;;;11.20;99.90;;;;;;4848546;29;20061;-80
2021/11/19 15:38:47;;;;;;;8.07;4.70;;;9.00;99.90;;;;;;5682389;23;20043;-80
2021/11/19 15:41:46;;;;;;;9.13;5.10;;;8.90;99.90;;;;;;4960816;29;20062;-79
2021/11/19 15:44:30;;;;;;;8.27;5.43;;;8.80;99.90;;;;;;4963033;28;20066;-81
2021/11/19 15:47:22;;;;;;;7.72;5.32;;;8.70;99.90;;;;;;4977909;29;20047;-80
2021/11/19 15:50:01;;;;;;;10.20;5.63;;;8.80;99.90;;;;;;4962754;29;20035;-80
2021/11/19 15:52:38;;;;;;;8.13;5.10;;;8.70;99.90;;;;;;4963868;29;20011;-79
2021/11/19 15:55:38;;;;;;;12.75;4.88;;;8.60;99.90;;;;;;4947727;29;20040;-80
2021/11/19 15:58:48;;;;;;;8.80;5.30;;;8.60;99.90;;;;;;4979251;29;20045;-80
2021/11/19 16:01:59;;;;;;;12.43;5.25;;;8.60;99.90;;;;;;4977656;29;20020;-80
2021/11/19 16:04:48;;;;;;;9.80;5.80;;;8.60;99.90;;;;;;4966148;29;20457;-80
2021/11/19 16:07:37;;;;;;;8.57;5.20;;;8.50;99.90;;;;;;4978646;29;20019;-79
2021/11/19 16:10:50;;;;;;;11.88;6.43;;;8.50;99.90;;;;;;4963296;28;20043;-79
2021/11/19 16:13:35;;;;;;;8.30;5.72;;;8.50;99.90;;;;;;4901830;29;20042;-80
2021/11/19 16:16:12;;;;;;;9.75;6.00;;;8.50;99.90;;;;;;4881735;29;20128;-79
2021/11/19 16:18:46;;;;;;;7.68;5.15;;;8.50;99.90;;;;;;4940826;29;20043;-81
2021/11/19 16:21:27;;;;;;;6.53;4.43;;;8.40;99.90;;;;;;4958779;29;20036;-80
2021/11/19 16:23:54;;;;;;;6.88;4.10;;;8.50;99.90;;;;;;4946173;29;20110;-78
2021/11/19 16:26:22;;;;;;;14.23;5.30;;;8.50;99.90;;;;;;4935883;29;20036;-77
2021/11/19 16:28:55;;;;;;;9.63;4.25;;;8.50;99.90;;;;;;4926259;29;20056;-77
2021/11/19 16:31:26;;;;;;;8.25;4.80;;;8.60;99.90;;;;;;4926457;29;20094;-78
2021/11/19 16:33:53;;;;;;;6.90;4.05;;;8.60;99.90;;;;;;4934757;29;20084;-80
2021/11/19 16:36:58;;;;;;;6.05;3.95;;;8.60;99.90;;;;;;4939932;29;20012;-80
2021/11/19 16:39:27;;;;;;;8.45;4.57;;;8.70;99.90;;;;;;4958154;29;20039;-78
2021/11/19 16:41:59;;;;;;;9.75;5.72;;;8.60;99.90;;;;;;4937331;29;20055;-80
2021/11/19 16:44:27;;;;;;;5.82;4.30;;;8.70;99.90;;;;;;4954729;29;20016;-78
2021/11/19 16:46:55;;;;;;;7.20;4.25;;;8.70;99.90;;;;;;4960374;29;20065;-81
2021/11/19 16:49:26;;;;;;;9.57;6.50;;;8.70;99.90;;;;;;4941175;29;20074;-80
2021/11/19 16:52:23;;;;;;;7.07;4.55;;;8.60;99.90;;;;;;4941609;29;20067;-78
2021/11/19 16:55:12;;;;;;;8.38;5.10;;;8.50;99.90;;;;;;4958141;29;20008;-82
2021/11/19 16:58:19;;;;;;;7.80;4.70;;;8.50;99.90;;;;;;4952127;29;20051;-81
2021/11/19 17:04:32;;;;;;;8.60;5.70;;;8.40;99.90;;;;;;4930657;29;20107;-80
2021/11/19 17:07:56;;;;;;;12.75;6.20;;;8.40;99.90;;;;;;4960953;29;20020;-80
2021/11/19 17:11:21;;;;;;;12.07;7.57;;;8.30;99.90;;;;;;4943802;29;20063;-80
2021/11/19 17:14:12;;;;;;;11.15;7.35;;;8.30;99.90;;;;;;4901099;29;20028;-80
2021/11/19 17:19:35;;;;;;;13.63;8.20;;;8.20;99.90;;;;;;5340988;23;20065;-80
2021/11/19 17:22:05;;;;;;;13.82;7.13;;;8.10;99.90;;;;;;4956485;29;20126;-80
2021/11/19 17:24:39;;;;;;;11.52;7.47;;;8.10;99.90;;;;;;4956313;29;20036;-79
2021/11/19 17:27:09;;;;;;;15.10;8.80;;;8.00;99.90;;;;;;4954755;29;20027;-81
2021/11/19 17:29:55;;;;;;;15.00;9.90;;;8.10;99.90;;;;;;4940120;29;20052;-80
2021/11/19 17:32:24;;;;;;;15.50;10.70;;;8.00;99.90;;;;;;4920851;29;20040;-79
2021/11/19 17:34:56;;;;;;;13.43;8.65;;;8.00;99.90;;;;;;4904393;29;20046;-79
2021/11/19 17:37:28;;;;;;;12.07;8.13;;;8.00;99.90;;;;;;4932253;29;20028;-79
2021/11/19 17:40:03;;;;;;;19.58;11.88;;;7.90;99.90;;;;;;4934903;29;20046;-79
2021/11/19 17:42:31;;;;;;;15.00;10.05;;;8.00;99.90;;;;;;4933273;29;20072;-79
2021/11/19 17:45:04;;;;;;;11.13;8.27;;;7.90;99.90;;;;;;4935293;29;20024;-80
2021/11/19 17:47:47;;;;;;;12.18;7.82;;;7.90;99.90;;;;;;4922797;29;20032;-80
2021/11/19 17:50:29;;;;;;;10.30;7.43;;;7.80;99.90;;;;;;4938597;29;20032;-80
2021/11/19 17:53:16;;;;;;;10.35;7.18;;;7.80;99.90;;;;;;4924266;29;20039;-80
2021/11/19 17:56:06;;;;;;;;;;;7.70;99.90;;;;;;4938661;29;20047;-80
2021/11/19 17:58:49;;;;;;;9.27;5.95;;;7.70;99.90;;;;;;4938530;29;19938;-80
2021/11/19 18:01:58;;;;;;;10.57;6.85;;;7.60;99.90;;;;;;4937883;29;20036;-81
2021/11/19 18:04:36;;;;;;;11.75;7.40;;;7.60;99.90;;;;;;4939717;29;20040;-80
2021/11/19 18:07:24;;;;;;;14.32;9.43;;;7.50;99.90;;;;;;4919526;29;20040;-79
2021/11/19 18:09:56;;;;;;;14.23;9.73;;;7.50;99.90;;;;;;4923292;29;20032;-80
2021/11/19 18:12:45;;;;;;;16.92;9.07;;;7.50;99.90;;;;;;4938216;29;20020;-80
2021/11/19 18:15:17;;;;;;;15.18;9.93;;;7.50;99.90;;;;;;4926325;29;20051;-79
2021/11/19 18:17:50;;;;;;;11.80;8.38;;;7.50;99.90;;;;;;4938151;29;20044;-79
2021/11/19 18:20:41;;;;;;;13.68;8.95;;;7.50;99.90;;;;;;4942478;29;20052;-79
2021/11/19 18:23:30;;;;;;;13.40;9.30;;;7.50;99.90;;;;;;4931942;29;20055;-79
2021/11/19 18:26:22;;;;;;;10.55;7.85;;;7.50;99.90;;;;;;4937792;29;20032;-81
2021/11/19 18:29:01;;;;;;;17.67;12.25;;;7.50;99.90;;;;;;4933798;29;20040;-78
2021/11/19 18:31:50;;;;;;;12.40;9.77;;;7.40;99.90;;;;;;4933105;29;20035;-78
2021/11/19 18:34:28;;;;;;;12.05;9.65;;;7.40;99.90;;;;;;4950831;29;20079;-81
2021/11/19 18:36:55;;;;;;;13.93;10.25;;;7.30;99.90;;;;;;4930114;29;20044;-80
2021/11/19 18:39:31;;;;;;;19.02;11.75;;;7.30;99.90;;;;;;4937760;29;20008;-82
2021/11/19 18:41:57;;;;;;;40.75;23.52;;;7.20;99.90;;;;;;4950116;29;20378;-79
2021/11/19 18:44:23;;;;;;;26.13;16.55;;;7.20;99.90;;;;;;4948755;29;20131;-79
2021/11/19 18:46:51;;;;;;;;;;;7.20;99.90;;;;;;4936464;29;20020;-83
2021/11/19 18:49:19;;;;;;;39.17;22.33;;;7.20;99.90;;;;;;4938301;29;19907;-82
2021/11/19 18:52:09;;;;;;;32.28;20.63;;;7.10;99.90;;;;;;4940420;29;20031;-83
2021/11/19 18:54:57;;;;;;;34.25;20.60;;;7.10;99.90;;;;;;4940246;29;20020;-81
2021/11/19 18:57:26;;;;;;;22.67;11.13;;;7.30;99.90;;;;;;4953947;29;20020;-81
2021/11/19 18:59:59;;;;;;;21.90;14.70;;;7.40;99.90;;;;;;4946021;29;20413;-83
2021/11/19 19:02:30;;;;;;;17.02;10.95;;;7.60;99.90;;;;;;4935586;29;20043;-79
2021/11/19 19:05:23;;;;;;;18.30;11.10;;;7.70;99.90;;;;;;4955914;29;20028;-82
2021/11/19 19:08:43;;;;;;;13.90;8.25;;;7.80;99.90;;;;;;4929913;29;20498;-81
2021/11/19 19:11:16;;;;;;;11.82;6.50;;;7.90;99.90;;;;;;4939546;29;20039;-80
2021/11/19 19:14:26;;;;;;;12.25;6.65;;;8.00;99.90;;;;;;4934716;29;20036;-82
2021/11/19 19:16:59;;;;;;;12.85;7.18;;;8.10;99.90;;;;;;4938402;29;20110;-81
2021/11/19 19:19:31;;;;;;;10.70;7.63;;;8.10;99.90;;;;;;4942665;29;20066;-82
2021/11/19 19:22:03;;;;;;;10.43;7.40;;;8.20;99.90;;;;;;4922740;29;20040;-81
2021/11/19 19:24:39;;;;;;;9.93;6.35;;;8.20;99.90;;;;;;4935441;29;20036;-79
2021/11/19 19:27:26;;;;;;;9.23;6.18;;;8.20;99.90;;;;;;4916101;29;20044;-79
2021/11/19 19:30:29;;;;;;;9.48;5.28;;;8.20;99.90;;;;;;4935040;29;20043;-80
2021/11/19 19:33:51;;;;;;;7.25;4.50;;;8.30;99.90;;;;;;4927610;29;20028;-83
2021/11/19 19:38:04;;;;;;;6.65;4.45;;;8.30;99.90;;;;;;4939978;29;20068;-82
2021/11/19 19:40:52;;;;;;;7.53;5.82;;;8.20;99.90;;;;;;4897091;29;20025;-83
2021/11/19 19:43:19;;;;;;;8.10;5.38;;;8.20;99.90;;;;;;4890268;29;20053;-78
2021/11/19 19:45:49;;;;;;;9.40;4.97;;;8.30;99.90;;;;;;4901355;29;20029;-78
2021/11/19 19:48:27;;;;;;;10.50;5.75;;;8.40;99.90;;;;;;4852247;29;20045;-77
2021/11/19 19:51:05;;;;;;;8.60;6.07;;;8.40;99.90;;;;;;4871588;29;20044;-80
2021/11/19 19:53:53;;;;;;;10.25;6.10;;;8.40;99.90;;;;;;4900097;29;20021;-81
2021/11/19 19:56:29;;;;;;;15.05;8.73;;;8.50;99.90;;;;;;4897972;29;20056;-79
2021/11/19 19:58:56;;;;;;;12.60;8.40;;;8.40;99.90;;;;;;4901158;29;20037;-81
2021/11/19 20:01:55;;;;;;;14.02;8.32;;;8.30;99.90;;;;;;4897603;29;20085;-81
2021/11/19 20:04:43;;;;;;;10.75;6.72;;;8.30;99.90;;;;;;4898721;29;20064;-79
2021/11/19 20:07:15;;;;;;;9.98;7.05;;;8.20;99.90;;;;;;4900985;29;20039;-81
2021/11/19 20:10:10;;;;;;;17.02;10.07;;;8.30;99.90;;;;;;4867508;29;20525;-80
2021/11/19 20:12:43;;;;;;;16.80;9.93;;;8.10;99.90;;;;;;4932652;29;20043;-79
2021/11/19 20:15:20;;;;;;;13.23;8.88;;;8.00;99.90;;;;;;4939818;29;20024;-80
2021/11/19 20:18:13;;;;;;;;;;;7.90;99.90;;;;;;4913593;29;20040;-79
2021/11/19 20:21:14;;;;;;;31.27;18.38;;;7.80;99.90;;;;;;4940051;29;19903;-79
2021/11/19 20:23:47;;;;;;;42.47;25.33;;;7.60;99.90;;;;;;4937604;29;20032;-79
2021/11/19 20:26:24;;;;;;;38.35;23.77;;;7.50;99.90;;;;;;4913943;29;20529;-78
2021/11/19 20:28:52;;;;;;;33.10;19.88;;;7.40;99.90;;;;;;4932179;29;20036;-79
2021/11/19 20:31:43;;;;;;;36.35;22.25;;;7.30;99.90;;;;;;4939778;29;20036;-82
2021/11/19 20:34:57;;;;;;;33.95;19.25;;;7.30;99.90;;;;;;4924742;29;20028;-82
2021/11/19 20:37:43;;;;;;;23.10;13.75;;;7.30;99.90;;;;;;4939051;29;20072;-78
2021/11/19 20:40:11;;;;;;;;;;;7.30;99.90;;;;;;4929974;29;20497;-80
2021/11/19 20:42:40;;;;;;;20.40;11.63;;;7.40;99.90;;;;;;4925939;29;19899;-81
2021/11/19 20:45:15;;;;;;;14.93;9.85;;;7.50;99.90;;;;;;4941559;29;20024;-84
2021/11/19 20:47:41;;;;;;;12.55;7.95;;;7.60;99.90;;;;;;4924648;29;20035;-80
2021/11/19 20:50:11;;;;;;;17.75;8.95;;;7.70;99.90;;;;;;4921564;29;20012;-80
2021/11/19 20:52:45;;;;;;;13.75;8.98;;;7.80;99.90;;;;;;4938789;29;20043;-82
2021/11/19 20:55:25;;;;;;;8.73;6.78;;;8.00;99.90;;;;;;4933798;29;20084;-80
2021/11/19 20:57:52;;;;;;;12.68;6.47;;;8.20;99.90;;;;;;4914491;29;20043;-79
2021/11/19 21:00:22;;;;;;;7.57;5.90;;;8.30;99.90;;;;;;4933866;29;20083;-81
2021/11/19 21:02:53;;;;;;;8.80;5.93;;;8.50;99.90;;;;;;4939948;29;20036;-80
2021/11/19 21:05:22;;;;;;;8.30;5.57;;;8.70;99.90;;;;;;4939957;29;20042;-80
2021/11/19 21:07:52;;;;;;;7.95;5.47;;;8.70;99.90;;;;;;4938179;29;20052;-79
2021/11/19 21:10:23;;;;;;;7.30;5.60;;;8.90;99.90;;;;;;4929945;29;20047;-80
2021/11/19 21:13:35;;;;;;;7.30;5.70;;;9.00;99.90;;;;;;4921688;29;20032;-80
2021/11/19 21:18:38;;;;;;;10.02;6.07;;;9.10;99.90;;;;;;5133761;23;20059;-79
2021/11/19 21:21:06;;;;;;;;;;;9.10;99.90;;;;;;4961893;29;20022;-78
2021/11/19 21:23:32;;;;;;;13.10;9.27;;;9.10;99.90;;;;;;4978374;29;19910;-80
2021/11/19 21:25:59;;;;;;;;;;;9.10;99.90;;;;;;4961383;29;20027;-80
2021/11/19 21:28:37;;;;;;;;;;;9.20;99.90;;;;;;4963261;29;19902;-80
2021/11/19 21:31:41;;;;;;;8.68;5.47;;;9.10;99.90;;;;;;4975301;28;20466;-80
2021/11/19 21:34:45;;;;;;;8.63;5.53;;;9.00;99.90;;;;;;4944159;29;20051;-80
2021/11/19 21:37:33;;;;;;;11.45;7.07;;;9.00;99.90;;;;;;4939876;29;20047;-80
2021/11/19 21:40:19;;;;;;;9.88;6.10;;;8.90;99.90;;;;;;4963642;29;20023;-81
2021/11/19 21:43:23;;;;;;;14.35;8.52;;;8.90;99.90;;;;;;4977459;28;20039;-81
2021/11/19 21:46:00;;;;;;;10.10;6.97;;;8.90;99.90;;;;;;4951666;29;20034;-79
2021/11/19 21:48:54;;;;;;;9.48;7.05;;;8.90;99.90;;;;;;4973893;29;20107;-81
2021/11/19 21:51:28;;;;;;;10.48;7.50;;;9.00;99.90;;;;;;4960173;29;20051;-79
2021/11/19 21:54:04;;;;;;;11.13;6.85;;;8.90;99.90;;;;;;4960845;29;20032;-80
2021/11/19 21:56:46;;;;;;;7.15;4.65;;;8.90;99.90;;;;;;4942152;29;20070;-79
2021/11/19 21:59:35;;;;;;;9.35;6.30;;;8.80;99.90;;;;;;4978887;28;20036;-81
2021/11/19 22:02:42;;;;;;;11.27;7.82;;;8.90;99.90;;;;;;4979719;28;20078;-82
2021/11/19 22:18:52;;;;;;;7.18;4.95;;;8.90;99.90;;;;;;4762658;27;20044;-81
2021/11/19 22:26:49;;;;;;;7.80;5.05;;;8.90;99.90;;;;;;5208144;23;20066;-78
2021/11/19 22:30:11;;;;;;;7.95;5.60;;;9.00;99.90;;;;;;4959393;28;20023;-83
2021/11/19 22:33:05;;;;;;;9.40;6.63;;;8.90;99.90;;;;;;4906248;29;20055;-81
2021/11/19 22:36:13;;;;;;;8.02;5.95;;;8.80;99.90;;;;;;4939374;28;20047;-81
2021/11/19 22:39:35;;;;;;;10.95;5.53;;;8.80;99.90;;;;;;4974064;28;20048;-82
2021/11/19 22:42:26;;;;;;;11.15;7.90;;;8.80;99.90;;;;;;4905593;29;20037;-80
2021/11/19 22:45:18;;;;;;;10.18;7.10;;;8.80;99.90;;;;;;4886271;29;20029;-81
2021/11/19 22:47:49;;;;;;;10.80;7.38;;;8.70;99.90;;;;;;4899699;29;20128;-80
2021/11/19 22:50:24;;;;;;;13.55;8.95;;;8.70;99.90;;;;;;4867789;29;20025;-79
2021/11/19 22:52:50;;;;;;;15.43;9.23;;;8.60;99.90;;;;;;4883122;29;20013;-80
2021/11/19 22:55:18;;;;;;;;;;;8.70;99.90;;;;;;4883166;29;20152;-80
2021/11/19 22:57:56;;;;;;;16.48;9.52;;;8.60;99.90;;;;;;4882936;29;19922;-80
2021/11/19 23:01:07;;;;;;;11.68;8.25;;;8.60;99.90;;;;;;4898465;29;20057;-80
2021/11/19 23:03:40;;;;;;;8.50;6.13;;;8.70;99.90;;;;;;4874134;29;20048;-77
2021/11/19 23:06:07;;;;;;;11.13;7.75;;;8.90;99.90;;;;;;4903888;29;20046;-78
2021/11/19 23:08:34;;;;;;;10.55;7.32;;;8.90;99.90;;;;;;4902915;29;20581;-80
2021/11/19 23:11:16;;;;;;;11.77;7.50;;;8.90;99.90;;;;;;4908118;29;20025;-80
2021/11/19 23:14:03;;;;;;;10.27;6.45;;;9.00;99.90;;;;;;4903233;29;20025;-80
2021/11/19 23:17:29;;;;;;;11.00;7.97;;;9.10;99.90;;;;;;4903271;29;20039;-81
2021/11/19 23:19:57;;;;;;;11.10;7.63;;;9.10;99.90;;;;;;4914870;29;20045;-79
2021/11/19 23:22:31;;;;;;;11.05;7.40;;;9.20;99.90;;;;;;4913770;29;20050;-80
2021/11/19 23:25:05;;;;;;;7.63;5.85;;;9.20;99.90;;;;;;4917162;29;20039;-79
2021/11/19 23:27:48;;;;;;;8.57;5.97;;;9.30;99.90;;;;;;4902859;29;20049;-80
2021/11/19 23:30:51;;;;;;;6.80;5.93;;;9.30;99.90;;;;;;4913400;29;20041;-80
2021/11/19 23:34:07;;;;;;;7.00;4.53;;;9.20;99.90;;;;;;4902134;29;20044;-80
2021/11/19 23:36:44;;;;;;;10.93;5.72;;;9.30;99.90;;;;;;4913348;29;20032;-79
2021/11/19 23:39:17;;;;;;;7.13;4.82;;;9.30;99.90;;;;;;4916725;29;20092;-79
2021/11/19 23:41:45;;;;;;;10.90;6.47;;;9.30;99.90;;;;;;4921440;29;20043;-79
2021/11/19 23:44:27;;;;;;;13.63;7.13;;;9.40;99.90;;;;;;4906223;29;20039;-81
2021/11/19 23:47:20;;;;;;;10.20;7.13;;;9.40;99.90;;;;;;4880482;29;20064;-80
2021/11/19 23:50:01;;;;;;;10.07;6.50;;;9.40;99.90;;;;;;4917460;29;20068;-79
2021/11/19 23:53:05;;;;;;;9.23;6.05;;;9.40;99.90;;;;;;4922003;29;20033;-80
2021/11/19 23:55:37;;;;;;;9.45;6.35;;;9.40;99.90;;;;;;4901917;29;20029;-79
2021/11/19 23:58:28;;;;;;;9.68;5.88;;;9.30;99.90;;;;;;4937027;29;20133;-80
